createdAt,value
2022-10-01T00:12:12.575Z,90.05
2022-10-01T00:22:17.037Z,109.63
2022-10-01T00:32:19.568Z,95.13
2022-10-01T01:48:48.826Z,84.72
2022-10-01T01:58:52.246Z,74.25
2022-10-01T02:09:19.649Z,107.28
2022-10-01T02:19:30.467Z,78.60
2022-10-01T02:29:34.323Z,88.50
2022-10-01T02:39:39.465Z,75.65
2022-10-01T02:49:42.005Z,97.20
2022-10-01T03:11:18.892Z,85.78
2022-10-01T03:21:36.236Z,72.05
2022-10-01T03:31:41.690Z,87.80
2022-10-01T03:41:46.675Z,87.82
2022-10-01T03:52:17.545Z,85.88
2022-10-01T04:02:31.765Z,86.45
2022-10-01T04:12:51.601Z,68.10
2022-10-01T04:22:53.807Z,84.85
2022-10-01T04:32:58.709Z,72.40
2022-10-01T05:04:12.926Z,46.20
2022-10-01T05:14:29.685Z,60.03
2022-10-01T05:24:34.505Z,54.60
2022-10-01T05:34:38.583Z,55.53
2022-10-01T05:44:40.361Z,43.03
2022-10-01T05:54:44.580Z,58.47
2022-10-01T06:04:47.012Z,63.42
2022-10-01T06:14:50.947Z,50.17
2022-10-01T06:24:56.570Z,71.25
2022-10-01T06:34:58.632Z,67.70
2022-10-01T06:45:04.090Z,57.85
2022-10-01T06:55:13.128Z,72.85
2022-10-01T07:05:17.992Z,76.55
2022-10-01T07:15:22.186Z,114.65
2022-10-01T07:25:24.897Z,120.13
2022-10-01T07:35:27.043Z,59.85
2022-10-01T07:45:28.894Z,48.97
2022-10-01T07:55:33.132Z,44.53
2022-10-01T08:05:36.054Z,38.00
2022-10-01T08:15:37.819Z,44.97
2022-10-01T08:25:40.884Z,64.57
2022-10-01T08:35:43.192Z,62.20
2022-10-01T08:45:54.799Z,42.63
2022-10-01T08:55:57.898Z,35.03
2022-10-01T09:06:14.090Z,38.47
2022-10-01T09:16:45.350Z,32.00
2022-10-01T09:26:57.082Z,32.13
2022-10-01T09:37:12.040Z,44.40
2022-10-01T09:47:25.871Z,51.15
2022-10-01T09:57:50.496Z,49.35
2022-10-01T10:08:16.685Z,50.85
2022-10-01T10:18:27.854Z,45.53
2022-10-01T10:28:44.292Z,31.75
2022-10-01T10:38:58.902Z,20.08
2022-10-01T10:49:17.800Z,18.70
2022-10-01T10:59:33.355Z,20.98
2022-10-01T11:10:30.904Z,15.75
2022-10-01T11:32:05.255Z,12.80
2022-10-01T11:42:12.533Z,13.68
2022-10-01T11:52:35.522Z,8.40
2022-10-01T12:02:58.607Z,12.05
2022-10-01T12:13:15.528Z,7.32
2022-10-01T12:23:28.181Z,9.45
2022-10-01T12:33:54.593Z,13.15
2022-10-01T12:44:25.327Z,12.02
2022-10-01T12:54:44.019Z,9.50
2022-10-01T13:05:07.332Z,7.30
2022-10-01T13:15:17.954Z,7.20
2022-10-01T13:25:51.307Z,7.85
2022-10-01T13:36:01.979Z,10.73
2022-10-01T13:46:09.880Z,8.32
2022-10-01T13:56:15.003Z,11.88
2022-10-01T14:06:38.084Z,13.93
2022-10-01T14:16:43.713Z,18.48
2022-10-01T14:27:03.598Z,17.52
2022-10-01T14:37:17.471Z,16.42
2022-10-01T14:47:24.362Z,11.10
2022-10-01T14:57:47.478Z,16.58
2022-10-01T15:07:49.699Z,13.98
2022-10-01T15:17:52.342Z,17.20
2022-10-01T15:27:54.662Z,13.57
2022-10-01T15:37:56.892Z,14.05
2022-10-01T15:47:58.816Z,42.17
2022-10-01T15:58:07.078Z,21.70
2022-10-01T16:08:25.564Z,21.85
2022-10-01T16:18:30.944Z,23.45
2022-10-01T16:28:35.100Z,35.45
2022-10-01T16:38:36.891Z,29.85
2022-10-01T16:48:38.751Z,30.15
2022-10-01T16:58:43.954Z,41.45
2022-10-01T17:08:45.933Z,31.08
2022-10-01T17:18:47.871Z,27.67
2022-10-01T17:28:55.986Z,17.17
2022-10-01T17:38:59.462Z,5.18
2022-10-01T17:49:01.439Z,6.45
2022-10-01T17:59:03.305Z,4.82
2022-10-01T18:09:05.582Z,3.47
2022-10-01T18:19:52.292Z,6.80
2022-10-01T18:29:35.608Z,6.63
2022-10-01T18:39:42.183Z,7.05
2022-10-01T18:50:24.081Z,7.25
2022-10-01T19:00:50.010Z,13.45
2022-10-01T19:11:17.062Z,11.00
2022-10-01T19:21:57.377Z,10.32
2022-10-01T19:32:17.931Z,8.75
2022-10-01T19:42:29.290Z,15.18
2022-10-01T19:52:35.828Z,9.43
2022-10-01T20:02:56.619Z,13.48
2022-10-01T20:13:34.788Z,9.55
2022-10-01T20:24:00.721Z,17.13
2022-10-01T20:34:31.446Z,7.82
2022-10-01T20:44:41.785Z,9.82
2022-10-01T20:55:19.669Z,11.13
2022-10-01T21:05:27.086Z,7.78
2022-10-01T21:15:58.022Z,8.80
2022-10-01T21:59:11.754Z,5.75
2022-10-01T22:53:19.527Z,4.43
2022-10-01T23:15:39.447Z,7.05
2022-10-01T23:37:15.897Z,13.68
2022-10-01T23:47:44.190Z,9.90
2022-10-01T23:57:50.739Z,6.55
